sensor_id;sensor_type;location;lat;lon;timestamp;pressure;altitude;pressure_sealevel;temperature;humidity
71126;BME280;58785;55.566;38.058;2022-08-04T00:04:07;100694.09;;;18.04;70.74
71126;BME280;58785;55.566;38.058;2022-08-04T00:09:58;100697.88;;;17.95;70.85
71126;BME280;58785;55.566;38.058;2022-08-04T00:12:28;100691.97;;;17.92;70.73
71126;BME280;58785;55.566;38.058;2022-08-04T00:14:58;100704.28;;;17.94;70.92
71126;BME280;58785;55.566;38.058;2022-08-04T00:17:30;100698.94;;;17.86;70.99
71126;BME280;58785;55.566;38.058;2022-08-04T00:19:59;100697.28;;;17.85;71.10
71126;BME280;58785;55.566;38.058;2022-08-04T00:22:27;100703.31;;;17.87;71.25
71126;BME280;58785;55.566;38.058;2022-08-04T00:24:56;100704.69;;;17.83;71.20
71126;BME280;58785;55.566;38.058;2022-08-04T00:27:22;100697.13;;;17.78;71.17
71126;BME280;58785;55.566;38.058;2022-08-04T00:29:48;100706.91;;;17.79;71.13
71126;BME280;58785;55.566;38.058;2022-08-04T00:32:16;100711.66;;;17.77;71.07
71126;BME280;58785;55.566;38.058;2022-08-04T00:34:43;100712.03;;;17.74;71.28
71126;BME280;58785;55.566;38.058;2022-08-04T00:37:09;100712.84;;;17.75;71.31
71126;BME280;58785;55.566;38.058;2022-08-04T00:39:35;100708.47;;;17.74;71.46
71126;BME280;58785;55.566;38.058;2022-08-04T00:44:45;100708.13;;;17.69;71.63
71126;BME280;58785;55.566;38.058;2022-08-04T00:50:07;100708.69;;;17.64;72.05
71126;BME280;58785;55.566;38.058;2022-08-04T01:01:03;100720.00;;;17.60;72.32
71126;BME280;58785;55.566;38.058;2022-08-04T01:06:44;100723.56;;;17.52;72.58
71126;BME280;58785;55.566;38.058;2022-08-04T01:14:42;100734.53;;;17.50;72.99
71126;BME280;58785;55.566;38.058;2022-08-04T01:17:18;100738.06;;;17.51;73.23
71126;BME280;58785;55.566;38.058;2022-08-04T01:19:58;100728.84;;;17.45;73.08
71126;BME280;58785;55.566;38.058;2022-08-04T01:33:47;100734.09;;;17.39;73.14
71126;BME280;58785;55.566;38.058;2022-08-04T01:36:13;100741.81;;;17.42;73.26
71126;BME280;58785;55.566;38.058;2022-08-04T01:38:39;100739.50;;;17.39;73.47
71126;BME280;58785;55.566;38.058;2022-08-04T01:41:09;100749.59;;;17.45;73.44
71126;BME280;58785;55.566;38.058;2022-08-04T01:43:43;100738.81;;;17.45;73.49
71126;BME280;58785;55.566;38.058;2022-08-04T01:46:11;100742.34;;;17.45;73.48
71126;BME280;58785;55.566;38.058;2022-08-04T01:48:38;100746.06;;;17.44;73.41
71126;BME280;58785;55.566;38.058;2022-08-04T01:51:06;100736.44;;;17.42;73.39
71126;BME280;58785;55.566;38.058;2022-08-04T01:53:34;100739.47;;;17.47;73.48
71126;BME280;58785;55.566;38.058;2022-08-04T01:56:01;100747.38;;;17.48;73.35
71126;BME280;58785;55.566;38.058;2022-08-04T01:58:32;100750.72;;;17.50;73.09
71126;BME280;58785;55.566;38.058;2022-08-04T02:03:31;100750.88;;;17.57;73.23
71126;BME280;58785;55.566;38.058;2022-08-04T02:06:23;100746.13;;;17.59;73.10
71126;BME280;58785;55.566;38.058;2022-08-04T02:09:02;100747.78;;;17.60;73.12
71126;BME280;58785;55.566;38.058;2022-08-04T02:11:29;100751.16;;;17.62;73.03
71126;BME280;58785;55.566;38.058;2022-08-04T02:17:13;100746.91;;;17.68;72.95
71126;BME280;58785;55.566;38.058;2022-08-04T02:22:17;100741.84;;;17.73;72.85
71126;BME280;58785;55.566;38.058;2022-08-04T02:24:49;100756.84;;;17.75;72.80
71126;BME280;58785;55.566;38.058;2022-08-04T02:27:27;100755.66;;;17.78;72.68
71126;BME280;58785;55.566;38.058;2022-08-04T02:29:58;100743.84;;;17.79;72.89
71126;BME280;58785;55.566;38.058;2022-08-04T02:32:26;100747.78;;;17.91;72.69
71126;BME280;58785;55.566;38.058;2022-08-04T02:37:36;100751.25;;;18.23;71.90
71126;BME280;58785;55.566;38.058;2022-08-04T02:40:05;100741.09;;;18.48;71.47
71126;BME280;58785;55.566;38.058;2022-08-04T02:42:32;100752.25;;;18.82;71.12
71126;BME280;58785;55.566;38.058;2022-08-04T02:44:59;100750.97;;;19.08;70.61
71126;BME280;58785;55.566;38.058;2022-08-04T02:47:27;100757.81;;;19.40;69.97
71126;BME280;58785;55.566;38.058;2022-08-04T02:49:53;100766.53;;;19.71;69.65
71126;BME280;58785;55.566;38.058;2022-08-04T02:52:22;100763.53;;;20.02;69.19
71126;BME280;58785;55.566;38.058;2022-08-04T02:54:53;100770.50;;;20.33;68.67
71126;BME280;58785;55.566;38.058;2022-08-04T02:57:22;100764.50;;;20.59;68.25
71126;BME280;58785;55.566;38.058;2022-08-04T03:00:09;100765.34;;;20.94;67.09
71126;BME280;58785;55.566;38.058;2022-08-04T03:05:56;100768.84;;;21.57;65.55
71126;BME280;58785;55.566;38.058;2022-08-04T03:17:37;100768.41;;;22.67;62.26
71126;BME280;58785;55.566;38.058;2022-08-04T03:40:02;100772.47;;;24.19;57.33
71126;BME280;58785;55.566;38.058;2022-08-04T03:48:43;100780.47;;;24.46;56.36
71126;BME280;58785;55.566;38.058;2022-08-04T04:02:38;100786.28;;;24.99;54.70
71126;BME280;58785;55.566;38.058;2022-08-04T04:08:07;100795.34;;;24.93;54.58
71126;BME280;58785;55.566;38.058;2022-08-04T04:14:04;100791.00;;;25.10;53.86
71126;BME280;58785;55.566;38.058;2022-08-04T04:17:08;100794.41;;;25.24;52.99
71126;BME280;58785;55.566;38.058;2022-08-04T04:22:37;100791.47;;;25.44;52.68
71126;BME280;58785;55.566;38.058;2022-08-04T04:25:23;100802.19;;;25.45;52.37
71126;BME280;58785;55.566;38.058;2022-08-04T04:29:01;100792.69;;;25.48;52.19
71126;BME280;58785;55.566;38.058;2022-08-04T04:31:32;100795.31;;;25.55;51.99
71126;BME280;58785;55.566;38.058;2022-08-04T04:37:05;100789.63;;;25.74;51.02
71126;BME280;58785;55.566;38.058;2022-08-04T04:39:58;100796.56;;;25.77;50.68
71126;BME280;58785;55.566;38.058;2022-08-04T04:45:29;100805.44;;;26.02;50.76
71126;BME280;58785;55.566;38.058;2022-08-04T04:48:07;100803.22;;;26.11;49.93
71126;BME280;58785;55.566;38.058;2022-08-04T04:53:31;100800.66;;;26.28;49.11
71126;BME280;58785;55.566;38.058;2022-08-04T04:59:01;100805.72;;;26.54;48.35
71126;BME280;58785;55.566;38.058;2022-08-04T05:07:09;100808.84;;;27.05;47.42
71126;BME280;58785;55.566;38.058;2022-08-04T05:15:41;100789.16;;;27.43;46.96
71126;BME280;58785;55.566;38.058;2022-08-04T05:18:13;100799.13;;;27.61;46.70
71126;BME280;58785;55.566;38.058;2022-08-04T05:20:43;100793.75;;;27.77;46.26
71126;BME280;58785;55.566;38.058;2022-08-04T05:23:17;100795.44;;;27.95;46.00
71126;BME280;58785;55.566;38.058;2022-08-04T05:25:50;100791.06;;;28.11;45.85
71126;BME280;58785;55.566;38.058;2022-08-04T05:28:35;100792.91;;;28.22;45.56
71126;BME280;58785;55.566;38.058;2022-08-04T05:31:11;100787.66;;;28.04;45.45
71126;BME280;58785;55.566;38.058;2022-08-04T05:36:08;100785.81;;;27.93;45.28
71126;BME280;58785;55.566;38.058;2022-08-04T05:38:37;100788.91;;;28.13;45.27
71126;BME280;58785;55.566;38.058;2022-08-04T05:41:04;100789.56;;;28.32;44.66
71126;BME280;58785;55.566;38.058;2022-08-04T05:43:31;100789.66;;;28.37;44.86
71126;BME280;58785;55.566;38.058;2022-08-04T05:45:58;100786.41;;;28.40;44.63
71126;BME280;58785;55.566;38.058;2022-08-04T05:48:24;100780.09;;;28.56;44.53
71126;BME280;58785;55.566;38.058;2022-08-04T05:50:51;100796.44;;;28.85;44.02
71126;BME280;58785;55.566;38.058;2022-08-04T05:53:18;100792.28;;;28.82;43.31
71126;BME280;58785;55.566;38.058;2022-08-04T05:55:45;100791.22;;;28.83;43.56
71126;BME280;58785;55.566;38.058;2022-08-04T05:58:11;100786.06;;;28.87;43.54
71126;BME280;58785;55.566;38.058;2022-08-04T06:00:40;100789.72;;;29.09;43.14
71126;BME280;58785;55.566;38.058;2022-08-04T06:03:06;100794.78;;;29.39;43.40
71126;BME280;58785;55.566;38.058;2022-08-04T06:05:34;100795.78;;;29.50;42.61
71126;BME280;58785;55.566;38.058;2022-08-04T06:08:00;100788.00;;;29.47;42.69
71126;BME280;58785;55.566;38.058;2022-08-04T06:10:27;100790.69;;;29.64;42.21
71126;BME280;58785;55.566;38.058;2022-08-04T06:12:58;100799.13;;;29.79;42.39
71126;BME280;58785;55.566;38.058;2022-08-04T06:15:26;100801.31;;;29.77;42.09
71126;BME280;58785;55.566;38.058;2022-08-04T06:17:56;100799.19;;;29.84;41.72
71126;BME280;58785;55.566;38.058;2022-08-04T06:20:29;100802.75;;;29.85;41.43
71126;BME280;58785;55.566;38.058;2022-08-04T06:23:03;100793.75;;;29.89;41.21
71126;BME280;58785;55.566;38.058;2022-08-04T06:25:32;100806.22;;;29.97;41.67
71126;BME280;58785;55.566;38.058;2022-08-04T06:28:00;100795.16;;;29.92;40.74
71126;BME280;58785;55.566;38.058;2022-08-04T06:30:30;100802.25;;;29.88;40.90
71126;BME280;58785;55.566;38.058;2022-08-04T06:32:58;100793.84;;;29.99;40.94
71126;BME280;58785;55.566;38.058;2022-08-04T06:35:38;100795.22;;;29.97;40.79
71126;BME280;58785;55.566;38.058;2022-08-04T06:38:05;100797.38;;;29.95;40.52
71126;BME280;58785;55.566;38.058;2022-08-04T06:40:32;100796.53;;;29.94;40.48
71126;BME280;58785;55.566;38.058;2022-08-04T06:43:03;100802.38;;;29.98;40.83
71126;BME280;58785;55.566;38.058;2022-08-04T06:45:31;100798.19;;;29.95;39.70
71126;BME280;58785;55.566;38.058;2022-08-04T06:47:58;100805.06;;;29.93;39.74
71126;BME280;58785;55.566;38.058;2022-08-04T06:50:25;100798.97;;;29.91;39.89
71126;BME280;58785;55.566;38.058;2022-08-04T06:52:51;100793.41;;;29.59;40.62
71126;BME280;58785;55.566;38.058;2022-08-04T06:55:17;100801.41;;;29.43;40.77
71126;BME280;58785;55.566;38.058;2022-08-04T06:57:45;100794.16;;;29.54;40.66
71126;BME280;58785;55.566;38.058;2022-08-04T07:00:12;100802.66;;;29.74;40.50
71126;BME280;58785;55.566;38.058;2022-08-04T07:02:57;100790.00;;;29.73;40.20
71126;BME280;58785;55.566;38.058;2022-08-04T07:05:24;100797.59;;;29.88;40.03
71126;BME280;58785;55.566;38.058;2022-08-04T07:07:49;100798.81;;;30.02;40.22
71126;BME280;58785;55.566;38.058;2022-08-04T07:10:15;100804.53;;;29.96;40.13
71126;BME280;58785;55.566;38.058;2022-08-04T07:12:42;100786.13;;;29.96;40.03
71126;BME280;58785;55.566;38.058;2022-08-04T07:15:09;100792.22;;;30.03;40.16
71126;BME280;58785;55.566;38.058;2022-08-04T07:17:36;100793.59;;;30.01;39.49
71126;BME280;58785;55.566;38.058;2022-08-04T07:20:04;100791.03;;;29.94;39.63
71126;BME280;58785;55.566;38.058;2022-08-04T07:22:30;100795.78;;;29.99;39.59
71126;BME280;58785;55.566;38.058;2022-08-04T07:24:57;100786.44;;;30.00;39.58
71126;BME280;58785;55.566;38.058;2022-08-04T07:27:24;100788.22;;;30.11;39.32
71126;BME280;58785;55.566;38.058;2022-08-04T07:29:50;100787.13;;;30.12;39.57
71126;BME280;58785;55.566;38.058;2022-08-04T07:32:26;100775.44;;;30.00;39.48
71126;BME280;58785;55.566;38.058;2022-08-04T07:34:52;100779.44;;;29.87;39.78
71126;BME280;58785;55.566;38.058;2022-08-04T07:37:18;100785.16;;;29.86;39.72
71126;BME280;58785;55.566;38.058;2022-08-04T07:39:44;100782.63;;;29.79;39.78
71126;BME280;58785;55.566;38.058;2022-08-04T07:42:10;100783.19;;;29.81;40.02
71126;BME280;58785;55.566;38.058;2022-08-04T07:44:36;100771.47;;;29.91;40.03
71126;BME280;58785;55.566;38.058;2022-08-04T07:47:04;100778.31;;;30.10;39.98
71126;BME280;58785;55.566;38.058;2022-08-04T07:49:31;100777.94;;;30.28;39.36
71126;BME280;58785;55.566;38.058;2022-08-04T07:51:58;100775.91;;;30.19;39.32
71126;BME280;58785;55.566;38.058;2022-08-04T07:54:24;100774.75;;;30.15;39.40
71126;BME280;58785;55.566;38.058;2022-08-04T07:56:50;100775.09;;;30.18;39.49
71126;BME280;58785;55.566;38.058;2022-08-04T07:59:20;100780.59;;;30.18;39.65
71126;BME280;58785;55.566;38.058;2022-08-04T08:01:46;100776.19;;;30.17;39.96
71126;BME280;58785;55.566;38.058;2022-08-04T08:04:12;100781.88;;;30.11;39.68
71126;BME280;58785;55.566;38.058;2022-08-04T08:06:39;100776.94;;;30.13;39.93
71126;BME280;58785;55.566;38.058;2022-08-04T08:09:14;100771.81;;;30.21;39.60
71126;BME280;58785;55.566;38.058;2022-08-04T08:11:45;100768.78;;;30.23;39.82
71126;BME280;58785;55.566;38.058;2022-08-04T08:14:11;100760.75;;;30.16;39.67
71126;BME280;58785;55.566;38.058;2022-08-04T08:16:38;100776.09;;;30.39;39.77
71126;BME280;58785;55.566;38.058;2022-08-04T08:19:04;100765.44;;;30.48;39.18
71126;BME280;58785;55.566;38.058;2022-08-04T08:21:30;100766.25;;;30.48;39.60
71126;BME280;58785;55.566;38.058;2022-08-04T08:23:56;100769.66;;;30.60;40.20
71126;BME280;58785;55.566;38.058;2022-08-04T08:26:22;100771.13;;;30.68;39.57
71126;BME280;58785;55.566;38.058;2022-08-04T08:28:48;100768.72;;;30.77;39.81
71126;BME280;58785;55.566;38.058;2022-08-04T08:31:14;100776.50;;;30.95;39.37
71126;BME280;58785;55.566;38.058;2022-08-04T08:33:40;100766.97;;;31.13;39.35
71126;BME280;58785;55.566;38.058;2022-08-04T08:36:22;100771.56;;;31.44;39.47
71126;BME280;58785;55.566;38.058;2022-08-04T08:39:06;100761.41;;;31.60;39.25
71126;BME280;58785;55.566;38.058;2022-08-04T08:47:38;100778.97;;;30.92;39.68
71126;BME280;58785;55.566;38.058;2022-08-04T08:56:00;100762.94;;;30.83;38.99
71126;BME280;58785;55.566;38.058;2022-08-04T09:01:39;100764.50;;;31.11;39.07
71126;BME280;58785;55.566;38.058;2022-08-04T09:04:37;100767.59;;;31.20;39.54
71126;BME280;58785;55.566;38.058;2022-08-04T09:15:21;100766.75;;;31.19;39.47
71126;BME280;58785;55.566;38.058;2022-08-04T09:17:53;100766.44;;;31.16;39.07
71126;BME280;58785;55.566;38.058;2022-08-04T09:25:40;100763.38;;;31.07;40.00
71126;BME280;58785;55.566;38.058;2022-08-04T09:28:18;100761.91;;;30.95;40.51
71126;BME280;58785;55.566;38.058;2022-08-04T09:30:51;100763.81;;;30.89;40.40
71126;BME280;58785;55.566;38.058;2022-08-04T09:39:05;100771.22;;;30.51;40.82
71126;BME280;58785;55.566;38.058;2022-08-04T09:44:27;100763.25;;;30.18;41.10
71126;BME280;58785;55.566;38.058;2022-08-04T09:47:03;100763.06;;;30.02;41.16
71126;BME280;58785;55.566;38.058;2022-08-04T09:49:32;100766.88;;;29.96;41.33
71126;BME280;58785;55.566;38.058;2022-08-04T09:52:07;100761.03;;;29.93;41.83
71126;BME280;58785;55.566;38.058;2022-08-04T09:57:38;100757.25;;;29.72;42.01
71126;BME280;58785;55.566;38.058;2022-08-04T10:02:35;100768.44;;;29.65;42.59
71126;BME280;58785;55.566;38.058;2022-08-04T10:05:06;100761.25;;;29.59;42.16
71126;BME280;58785;55.566;38.058;2022-08-04T10:08:03;100765.84;;;29.54;42.44
71126;BME280;58785;55.566;38.058;2022-08-04T10:10:54;100759.78;;;29.52;42.87
71126;BME280;58785;55.566;38.058;2022-08-04T10:16:34;100759.47;;;29.48;42.21
71126;BME280;58785;55.566;38.058;2022-08-04T10:21:44;100766.38;;;29.51;42.05
71126;BME280;58785;55.566;38.058;2022-08-04T10:24:32;100759.25;;;29.55;41.85
71126;BME280;58785;55.566;38.058;2022-08-04T10:27:11;100755.28;;;29.67;42.36
71126;BME280;58785;55.566;38.058;2022-08-04T10:29:42;100757.56;;;29.75;42.06
71126;BME280;58785;55.566;38.058;2022-08-04T10:32:22;100767.34;;;29.88;41.57
71126;BME280;58785;55.566;38.058;2022-08-04T10:43:32;100758.94;;;30.00;41.07
71126;BME280;58785;55.566;38.058;2022-08-04T10:46:31;100766.78;;;30.13;40.44
71126;BME280;58785;55.566;38.058;2022-08-04T10:49:09;100759.72;;;30.22;40.66
71126;BME280;58785;55.566;38.058;2022-08-04T10:57:09;100755.72;;;30.40;40.21
71126;BME280;58785;55.566;38.058;2022-08-04T10:59:55;100759.66;;;30.49;40.22
71126;BME280;58785;55.566;38.058;2022-08-04T11:02:45;100764.34;;;30.49;39.48
71126;BME280;58785;55.566;38.058;2022-08-04T11:07:51;100765.72;;;30.51;39.52
71126;BME280;58785;55.566;38.058;2022-08-04T11:10:21;100766.84;;;30.55;39.47
71126;BME280;58785;55.566;38.058;2022-08-04T11:12:54;100754.22;;;30.59;39.81
71126;BME280;58785;55.566;38.058;2022-08-04T11:15:24;100756.53;;;30.68;39.65
71126;BME280;58785;55.566;38.058;2022-08-04T11:17:56;100758.19;;;30.74;39.80
71126;BME280;58785;55.566;38.058;2022-08-04T11:20:41;100752.41;;;30.70;40.69
71126;BME280;58785;55.566;38.058;2022-08-04T11:23:13;100762.06;;;30.73;40.84
71126;BME280;58785;55.566;38.058;2022-08-04T11:25:51;100768.13;;;30.75;40.54
71126;BME280;58785;55.566;38.058;2022-08-04T11:28:36;100762.09;;;30.78;39.87
71126;BME280;58785;55.566;38.058;2022-08-04T11:31:07;100757.63;;;30.67;40.06
71126;BME280;58785;55.566;38.058;2022-08-04T11:33:55;100766.56;;;30.52;38.90
71126;BME280;58785;55.566;38.058;2022-08-04T11:36:48;100755.53;;;30.47;39.69
71126;BME280;58785;55.566;38.058;2022-08-04T11:39:34;100757.47;;;30.51;39.16
71126;BME280;58785;55.566;38.058;2022-08-04T11:42:19;100764.94;;;30.56;39.14
71126;BME280;58785;55.566;38.058;2022-08-04T11:47:31;100753.97;;;30.61;39.21
71126;BME280;58785;55.566;38.058;2022-08-04T11:52:37;100755.34;;;30.63;38.53
71126;BME280;58785;55.566;38.058;2022-08-04T11:55:08;100751.75;;;30.58;38.42
71126;BME280;58785;55.566;38.058;2022-08-04T11:57:36;100750.59;;;30.54;38.99
71126;BME280;58785;55.566;38.058;2022-08-04T12:00:08;100755.81;;;30.50;38.87
71126;BME280;58785;55.566;38.058;2022-08-04T12:05:26;100751.91;;;30.46;38.52
71126;BME280;58785;55.566;38.058;2022-08-04T12:11:02;100746.66;;;30.40;40.07
71126;BME280;58785;55.566;38.058;2022-08-04T12:16:50;100740.25;;;30.34;40.51
71126;BME280;58785;55.566;38.058;2022-08-04T12:22:07;100744.91;;;30.28;40.69
71126;BME280;58785;55.566;38.058;2022-08-04T12:24:45;100738.25;;;30.24;40.33
71126;BME280;58785;55.566;38.058;2022-08-04T12:27:15;100747.03;;;30.21;40.22
71126;BME280;58785;55.566;38.058;2022-08-04T12:29:41;100729.97;;;30.19;40.36
71126;BME280;58785;55.566;38.058;2022-08-04T12:33:11;100727.78;;;30.21;40.56
71126;BME280;58785;55.566;38.058;2022-08-04T12:35:28;100733.84;;;30.23;40.68
71126;BME280;58785;55.566;38.058;2022-08-04T12:38:14;100733.03;;;30.23;40.94
71126;BME280;58785;55.566;38.058;2022-08-04T12:40:48;100727.50;;;30.18;40.56
71126;BME280;58785;55.566;38.058;2022-08-04T12:43:19;100731.56;;;30.15;40.54
71126;BME280;58785;55.566;38.058;2022-08-04T12:45:56;100734.31;;;30.15;40.86
71126;BME280;58785;55.566;38.058;2022-08-04T12:48:23;100721.66;;;30.14;41.10
71126;BME280;58785;55.566;38.058;2022-08-04T12:50:52;100726.94;;;30.21;41.21
71126;BME280;58785;55.566;38.058;2022-08-04T12:53:26;100716.47;;;30.18;40.99
71126;BME280;58785;55.566;38.058;2022-08-04T12:55:53;100715.88;;;30.11;40.48
71126;BME280;58785;55.566;38.058;2022-08-04T12:58:23;100726.31;;;30.09;41.00
71126;BME280;58785;55.566;38.058;2022-08-04T13:00:55;100719.84;;;29.98;41.01
71126;BME280;58785;55.566;38.058;2022-08-04T13:03:22;100729.22;;;30.02;40.77
71126;BME280;58785;55.566;38.058;2022-08-04T13:05:53;100730.06;;;30.02;40.85
71126;BME280;58785;55.566;38.058;2022-08-04T13:08:20;100718.44;;;29.95;41.24
71126;BME280;58785;55.566;38.058;2022-08-04T13:10:49;100717.41;;;30.01;41.46
71126;BME280;58785;55.566;38.058;2022-08-04T13:13:17;100718.53;;;30.05;41.36
71126;BME280;58785;55.566;38.058;2022-08-04T13:16:03;100711.72;;;30.08;41.86
71126;BME280;58785;55.566;38.058;2022-08-04T13:18:37;100713.13;;;30.16;41.78
71126;BME280;58785;55.566;38.058;2022-08-04T13:21:20;100721.41;;;30.16;41.66
71126;BME280;58785;55.566;38.058;2022-08-04T13:23:47;100713.72;;;30.18;41.04
71126;BME280;58785;55.566;38.058;2022-08-04T13:26:14;100715.13;;;30.20;41.27
71126;BME280;58785;55.566;38.058;2022-08-04T13:28:42;100705.50;;;30.23;41.29
71126;BME280;58785;55.566;38.058;2022-08-04T13:31:21;100704.69;;;30.22;41.30
71126;BME280;58785;55.566;38.058;2022-08-04T13:33:49;100704.94;;;30.21;40.88
71126;BME280;58785;55.566;38.058;2022-08-04T13:36:17;100705.78;;;30.21;40.92
71126;BME280;58785;55.566;38.058;2022-08-04T13:38:57;100702.47;;;30.24;40.61
71126;BME280;58785;55.566;38.058;2022-08-04T13:41:26;100701.97;;;30.27;40.54
71126;BME280;58785;55.566;38.058;2022-08-04T13:43:58;100686.25;;;30.23;40.76
71126;BME280;58785;55.566;38.058;2022-08-04T13:46:31;100698.16;;;30.33;41.22
71126;BME280;58785;55.566;38.058;2022-08-04T13:49:00;100690.72;;;30.34;41.50
71126;BME280;58785;55.566;38.058;2022-08-04T13:51:29;100699.03;;;30.39;41.38
71126;BME280;58785;55.566;38.058;2022-08-04T13:53:58;100689.94;;;30.39;42.07
71126;BME280;58785;55.566;38.058;2022-08-04T13:56:31;100686.59;;;30.31;42.34
71126;BME280;58785;55.566;38.058;2022-08-04T13:58:59;100682.19;;;30.30;42.43
71126;BME280;58785;55.566;38.058;2022-08-04T14:01:26;100686.28;;;30.28;42.63
71126;BME280;58785;55.566;38.058;2022-08-04T14:06:35;100686.84;;;29.98;42.72
71126;BME280;58785;55.566;38.058;2022-08-04T14:09:14;100689.16;;;29.79;42.75
71126;BME280;58785;55.566;38.058;2022-08-04T14:11:46;100682.47;;;29.70;42.97
71126;BME280;58785;55.566;38.058;2022-08-04T14:14:20;100690.41;;;29.66;43.00
71126;BME280;58785;55.566;38.058;2022-08-04T14:17:02;100685.66;;;29.62;43.23
71126;BME280;58785;55.566;38.058;2022-08-04T14:25:10;100674.56;;;29.52;42.93
71126;BME280;58785;55.566;38.058;2022-08-04T14:27:55;100679.81;;;29.53;42.60
71126;BME280;58785;55.566;38.058;2022-08-04T14:30:35;100682.50;;;29.48;42.16
71126;BME280;58785;55.566;38.058;2022-08-04T14:33:06;100683.25;;;29.43;41.97
71126;BME280;58785;55.566;38.058;2022-08-04T14:35:33;100676.63;;;29.39;42.12
71126;BME280;58785;55.566;38.058;2022-08-04T14:38:10;100672.47;;;29.37;42.53
71126;BME280;58785;55.566;38.058;2022-08-04T14:40:38;100680.72;;;29.37;42.25
71126;BME280;58785;55.566;38.058;2022-08-04T14:43:05;100672.97;;;29.34;41.79
71126;BME280;58785;55.566;38.058;2022-08-04T14:45:35;100681.72;;;29.31;41.90
71126;BME280;58785;55.566;38.058;2022-08-04T14:48:05;100672.94;;;29.29;41.57
71126;BME280;58785;55.566;38.058;2022-08-04T14:50:46;100679.16;;;29.24;41.33
71126;BME280;58785;55.566;38.058;2022-08-04T14:53:14;100687.69;;;29.23;41.46
71126;BME280;58785;55.566;38.058;2022-08-04T14:55:45;100688.19;;;29.19;41.20
71126;BME280;58785;55.566;38.058;2022-08-04T15:00:47;100691.41;;;29.11;41.05
71126;BME280;58785;55.566;38.058;2022-08-04T15:03:13;100685.31;;;29.09;40.81
71126;BME280;58785;55.566;38.058;2022-08-04T15:05:41;100682.25;;;29.06;40.54
71126;BME280;58785;55.566;38.058;2022-08-04T15:08:07;100690.25;;;29.07;40.33
71126;BME280;58785;55.566;38.058;2022-08-04T15:10:33;100682.50;;;29.04;40.07
71126;BME280;58785;55.566;38.058;2022-08-04T15:13:01;100684.38;;;28.99;39.84
71126;BME280;58785;55.566;38.058;2022-08-04T15:15:28;100675.78;;;28.95;39.94
71126;BME280;58785;55.566;38.058;2022-08-04T15:17:54;100679.59;;;28.89;39.92
71126;BME280;58785;55.566;38.058;2022-08-04T15:20:21;100686.88;;;28.83;39.97
71126;BME280;58785;55.566;38.058;2022-08-04T15:22:47;100686.31;;;28.81;40.31
71126;BME280;58785;55.566;38.058;2022-08-04T15:25:14;100684.56;;;28.75;40.62
71126;BME280;58785;55.566;38.058;2022-08-04T15:27:40;100690.56;;;28.72;40.66
71126;BME280;58785;55.566;38.058;2022-08-04T15:30:11;100683.38;;;28.66;40.53
71126;BME280;58785;55.566;38.058;2022-08-04T15:32:53;100687.69;;;28.62;40.70
71126;BME280;58785;55.566;38.058;2022-08-04T15:35:25;100684.28;;;28.55;40.87
71126;BME280;58785;55.566;38.058;2022-08-04T15:43:10;100688.31;;;28.30;41.82
71126;BME280;58785;55.566;38.058;2022-08-04T15:45:51;100688.69;;;28.22;42.20
71126;BME280;58785;55.566;38.058;2022-08-04T15:53:33;100679.81;;;27.98;43.22
71126;BME280;58785;55.566;38.058;2022-08-04T15:58:51;100698.56;;;27.90;43.27
71126;BME280;58785;55.566;38.058;2022-08-04T16:01:18;100692.66;;;27.81;43.62
71126;BME280;58785;55.566;38.058;2022-08-04T16:03:48;100702.69;;;27.75;43.90
71126;BME280;58785;55.566;38.058;2022-08-04T16:11:38;100697.22;;;27.47;45.12
71126;BME280;58785;55.566;38.058;2022-08-04T16:14:08;100697.09;;;27.42;44.77
71126;BME280;58785;55.566;38.058;2022-08-04T16:22:00;100696.06;;;27.31;44.17
71126;BME280;58785;55.566;38.058;2022-08-04T16:26:58;100703.34;;;27.26;44.22
71126;BME280;58785;55.566;38.058;2022-08-04T16:37:18;100707.09;;;26.96;45.98
71126;BME280;58785;55.566;38.058;2022-08-04T16:39:45;100705.56;;;26.88;46.16
71126;BME280;58785;55.566;38.058;2022-08-04T16:45:00;100711.75;;;26.72;46.92
71126;BME280;58785;55.566;38.058;2022-08-04T16:50:21;100717.47;;;26.59;47.89
71126;BME280;58785;55.566;38.058;2022-08-04T16:52:52;100713.53;;;26.55;47.52
71126;BME280;58785;55.566;38.058;2022-08-04T16:55:20;100708.78;;;26.50;47.97
71126;BME280;58785;55.566;38.058;2022-08-04T16:57:48;100708.44;;;26.47;47.85
71126;BME280;58785;55.566;38.058;2022-08-04T17:00:15;100704.50;;;26.43;48.20
71126;BME280;58785;55.566;38.058;2022-08-04T17:02:42;100710.44;;;26.40;48.26
71126;BME280;58785;55.566;38.058;2022-08-04T17:05:24;100706.38;;;26.30;49.29
71126;BME280;58785;55.566;38.058;2022-08-04T17:07:51;100701.13;;;26.29;49.01
71126;BME280;58785;55.566;38.058;2022-08-04T17:10:17;100703.28;;;26.27;49.80
71126;BME280;58785;55.566;38.058;2022-08-04T17:12:43;100712.19;;;26.22;50.01
71126;BME280;58785;55.566;38.058;2022-08-04T17:15:23;100709.34;;;26.17;50.83
71126;BME280;58785;55.566;38.058;2022-08-04T17:17:50;100701.13;;;26.05;50.53
71126;BME280;58785;55.566;38.058;2022-08-04T17:20:16;100710.97;;;26.06;51.19
71126;BME280;58785;55.566;38.058;2022-08-04T17:22:42;100718.44;;;25.99;52.32
71126;BME280;58785;55.566;38.058;2022-08-04T17:25:08;100722.94;;;25.94;53.58
71126;BME280;58785;55.566;38.058;2022-08-04T17:27:35;100719.94;;;25.84;54.33
71126;BME280;58785;55.566;38.058;2022-08-04T17:30:01;100721.72;;;25.78;54.69
71126;BME280;58785;55.566;38.058;2022-08-04T17:32:29;100720.72;;;25.72;54.73